Time;durP1;ratioP1;P1;durP2;ratioP2;P2;SDS_P1;SDS_P2;PMS_P1;PMS_P2;Temp;Humidity;BMP_temperature;BMP_pressure;BME280_temperature;BME280_humidity;BME280_pressure;Samples;Min_cycle;Max_cycle;Signal;HPM_P1;HPM_P2
2024/03/01 00:01:22;;;;;;;39.38;18.77;;;;;;;11.61;100.00;100050.78;5097655;28;20427;-66
2024/03/01 00:03:47;;;;;;;43.85;20.05;;;;;;;11.14;100.00;100059.16;5097360;28;20268;-67
2024/03/01 00:06:14;;;;;;;40.45;18.48;;;;;;;11.01;100.00;100061.41;5097545;28;20040;-67
2024/03/01 00:08:39;;;;;;;38.78;19.67;;;;;;;10.85;100.00;100056.84;5097568;28;20093;-66
2024/03/01 00:11:05;;;;;;;43.67;19.85;;;;;;;10.82;100.00;100059.00;5097054;28;20309;-65
2024/03/01 00:13:30;;;;;;;39.88;19.70;;;;;;;11.03;100.00;100062.09;5096635;28;20031;-65
2024/03/01 00:15:56;;;;;;;43.20;20.25;;;;;;;11.18;100.00;100070.28;5097010;28;20382;-65
2024/03/01 00:18:21;;;;;;;40.08;19.25;;;;;;;11.26;100.00;100080.94;5096272;28;20420;-67
2024/03/01 00:20:47;;;;;;;37.92;18.73;;;;;;;11.06;100.00;100077.69;5096453;28;20039;-67
2024/03/01 00:23:12;;;;;;;40.08;18.45;;;;;;;10.80;100.00;100074.19;5095925;28;20047;-67
2024/03/01 00:25:38;;;;;;;44.60;19.30;;;;;;;10.73;100.00;100066.03;5096174;28;20205;-65
2024/03/01 00:28:04;;;;;;;41.88;19.60;;;;;;;10.88;100.00;100067.13;5096070;28;20040;-66
2024/03/01 00:30:29;;;;;;;45.88;18.85;;;;;;;10.94;100.00;100059.56;5096532;28;20077;-66
2024/03/01 00:32:55;;;;;;;38.05;17.70;;;;;;;10.92;100.00;100053.59;5096870;28;20332;-67
2024/03/01 00:35:20;;;;;;;40.85;18.48;;;;;;;10.66;100.00;100041.16;5097466;28;20353;-66
2024/03/01 00:37:46;;;;;;;43.45;17.90;;;;;;;10.49;100.00;100027.00;5096592;28;20105;-65
2024/03/01 00:40:11;;;;;;;41.65;19.27;;;;;;;9.82;100.00;100012.47;5096199;28;20040;-65
2024/03/01 00:42:38;;;;;;;47.30;20.30;;;;;;;9.67;100.00;99999.91;5096472;28;20206;-65
2024/03/01 00:45:04;;;;;;;42.30;18.63;;;;;;;9.64;100.00;99997.56;5096497;28;20398;-67
2024/03/01 00:47:29;;;;;;;50.22;20.20;;;;;;;9.70;100.00;99994.34;5096909;28;20887;-67
2024/03/01 00:49:55;;;;;;;44.00;18.88;;;;;;;9.50;100.00;99986.53;5096260;28;20028;-65
2024/03/01 00:52:20;;;;;;;42.25;19.42;;;;;;;9.33;100.00;100003.16;5095901;28;20032;-67
2024/03/01 00:54:46;;;;;;;45.90;20.23;;;;;;;9.34;100.00;99996.91;5096227;28;20226;-66
2024/03/01 00:57:11;;;;;;;43.58;19.58;;;;;;;9.28;100.00;99994.84;5096440;28;20028;-65
2024/03/01 00:59:37;;;;;;;51.75;20.63;;;;;;;9.26;100.00;99988.88;5096416;28;20047;-65
2024/03/01 01:02:02;;;;;;;45.38;20.63;;;;;;;9.27;100.00;99990.53;5096762;28;20351;-67
2024/03/01 01:04:27;;;;;;;49.00;21.92;;;;;;;9.19;100.00;99991.28;5095632;28;20326;-65
2024/03/01 01:06:53;;;;;;;43.38;20.08;;;;;;;9.18;100.00;99978.22;5097273;28;20040;-66
2024/03/01 01:09:18;;;;;;;44.05;19.98;;;;;;;9.31;100.00;99976.06;5096947;28;20229;-65
2024/03/01 01:11:44;;;;;;;44.90;19.40;;;;;;;9.26;100.00;99973.84;5096561;28;20039;-67
2024/03/01 01:14:09;;;;;;;50.08;21.38;;;;;;;9.36;100.00;99960.59;5096221;28;20047;-66
2024/03/01 01:16:35;;;;;;;50.10;20.75;;;;;;;9.25;100.00;99966.91;5094794;28;20032;-67
2024/03/01 01:19:01;;;;;;;49.63;21.23;;;;;;;9.27;100.00;99969.41;5096552;28;20040;-66
2024/03/01 01:21:27;;;;;;;52.25;21.60;;;;;;;9.45;100.00;99965.00;5100475;28;20047;-67
2024/03/01 01:23:52;;;;;;;51.47;20.40;;;;;;;9.61;100.00;99964.34;5100034;28;20032;-65
2024/03/01 01:26:17;;;;;;;49.15;19.00;;;;;;;9.36;100.00;99962.41;5099550;28;20059;-66
2024/03/01 01:28:43;;;;;;;48.40;21.50;;;;;;;9.48;100.00;99955.94;5098203;28;20040;-67
2024/03/01 01:31:09;;;;;;;52.72;21.25;;;;;;;9.38;100.00;99950.72;5098045;28;20031;-67
2024/03/01 01:33:34;;;;;;;54.55;22.05;;;;;;;9.34;100.00;99940.56;5099467;28;20291;-67
2024/03/01 01:35:59;;;;;;;52.40;21.40;;;;;;;9.07;100.00;99925.59;5100070;28;20267;-67
2024/03/01 01:38:25;;;;;;;48.00;20.63;;;;;;;9.07;100.00;99917.66;5100466;28;20120;-65
2024/03/01 01:40:52;;;;;;;49.78;20.77;;;;;;;8.91;100.00;99915.66;5098091;28;20341;-65
2024/03/01 01:43:17;;;;;;;48.70;20.50;;;;;;;8.98;100.00;99905.34;5099088;28;20233;-65
2024/03/01 01:45:43;;;;;;;51.67;20.98;;;;;;;8.99;100.00;99912.28;5099556;28;20035;-66
2024/03/01 01:48:09;;;;;;;48.70;20.40;;;;;;;9.11;100.00;99916.38;5100377;28;20387;-67
2024/03/01 01:50:35;;;;;;;47.88;20.15;;;;;;;9.12;100.00;99920.69;5097806;28;20214;-65
2024/03/01 01:53:03;;;;;;;50.47;21.08;;;;;;;9.22;100.00;99919.66;5098443;28;20040;-67
2024/03/01 01:55:29;;;;;;;45.78;20.98;;;;;;;9.49;100.00;99917.97;5098165;28;20093;-67
2024/03/01 01:57:55;;;;;;;50.35;23.60;;;;;;;9.79;100.00;99919.38;5098435;28;20036;-67
2024/03/01 02:00:20;;;;;;;49.42;21.02;;;;;;;10.05;100.00;99919.41;5096822;28;20264;-67
2024/03/01 02:02:50;;;;;;;43.45;20.10;;;;;;;9.91;100.00;99907.56;5098637;28;20024;-67
2024/03/01 02:05:19;;;;;;;44.53;19.33;;;;;;;10.17;100.00;99908.44;5097871;28;20043;-67
2024/03/01 02:07:45;;;;;;;46.40;19.38;;;;;;;10.30;100.00;99899.28;5097936;28;20386;-67
2024/03/01 02:10:17;;;;;;;39.60;19.25;;;;;;;10.42;100.00;99903.34;5098087;28;21443;-67
2024/03/01 02:12:53;;;;;;;45.00;20.30;;;;;;;10.33;100.00;99898.97;5097891;28;20249;-65
2024/03/01 02:15:18;;;;;;;48.92;20.15;;;;;;;10.06;100.00;99895.44;5098141;28;20455;-65
2024/03/01 02:17:44;;;;;;;41.03;19.10;;;;;;;9.89;100.00;99901.59;5097924;28;20387;-65
2024/03/01 02:20:10;;;;;;;45.58;20.02;;;;;;;9.64;100.00;99890.00;5098778;28;20032;-67
2024/03/01 02:22:39;;;;;;;43.92;21.05;;;;;;;9.45;100.00;99900.75;5096725;28;20043;-67
2024/03/01 02:25:05;;;;;;;47.10;21.05;;;;;;;8.89;100.00;99891.22;5099198;28;20044;-66
2024/03/01 02:27:31;;;;;;;45.22;19.70;;;;;;;8.66;100.00;99887.31;5097774;28;20035;-67
2024/03/01 02:29:56;;;;;;;50.83;21.13;;;;;;;8.44;100.00;99889.34;5099415;28;20723;-66
2024/03/01 02:32:22;;;;;;;47.08;20.48;;;;;;;8.43;100.00;99895.59;5096085;28;20044;-66
2024/03/01 02:34:47;;;;;;;47.97;19.83;;;;;;;8.41;100.00;99894.06;5098138;28;20055;-66
2024/03/01 02:37:13;;;;;;;47.03;21.10;;;;;;;8.47;100.00;99896.13;5097484;28;20043;-66
2024/03/01 02:39:38;;;;;;;46.83;18.35;;;;;;;8.20;100.00;99892.41;5098655;28;20032;-67
2024/03/01 02:42:04;;;;;;;49.35;21.13;;;;;;;8.08;100.00;99895.34;5098229;28;20050;-67
2024/03/01 02:44:29;;;;;;;50.85;22.35;;;;;;;8.04;100.00;99897.44;5096925;28;20047;-65
2024/03/01 02:46:55;;;;;;;53.22;22.42;;;;;;;8.15;100.00;99896.44;5097642;28;20024;-66
2024/03/01 02:49:20;;;;;;;56.00;21.20;;;;;;;8.11;100.00;99897.72;5097994;28;20044;-65
2024/03/01 02:51:46;;;;;;;47.70;20.15;;;;;;;7.97;100.00;99885.81;5097494;28;20067;-64
2024/03/01 02:54:11;;;;;;;45.58;19.40;;;;;;;7.98;100.00;99875.13;5097555;28;20081;-65
2024/03/01 02:56:37;;;;;;;49.60;21.70;;;;;;;8.05;100.00;99864.00;5098679;28;20039;-66
2024/03/01 02:59:02;;;;;;;54.65;21.25;;;;;;;8.02;100.00;99870.38;5095913;28;20265;-66
2024/03/01 03:01:30;;;;;;;55.45;22.88;;;;;;;7.87;100.00;99870.00;5098565;28;20364;-66
2024/03/01 03:03:56;;;;;;;50.28;22.25;;;;;;;7.77;100.00;99871.00;5096771;28;20042;-66
2024/03/01 03:06:21;;;;;;;51.92;20.55;;;;;;;7.59;100.00;99852.44;5097733;28;20035;-65
2024/03/01 03:08:46;;;;;;;52.00;20.02;;;;;;;7.48;100.00;99850.78;5096060;28;20044;-65
2024/03/01 03:11:13;;;;;;;63.92;22.23;;;;;;;7.35;100.00;99850.22;5097074;28;20230;-65
2024/03/01 03:13:39;;;;;;;58.13;21.88;;;;;;;7.37;100.00;99850.91;5095258;28;20028;-64
2024/03/01 03:16:04;;;;;;;57.58;22.65;;;;;;;7.42;100.00;99858.41;5096714;28;20044;-65
2024/03/01 03:18:30;;;;;;;63.55;21.70;;;;;;;7.46;100.00;99841.34;5097507;28;20391;-66
2024/03/01 03:20:56;;;;;;;64.22;24.08;;;;;;;7.47;100.00;99845.66;5097195;28;20028;-66
2024/03/01 03:23:21;;;;;;;58.65;25.73;;;;;;;7.67;100.00;99837.59;5096886;28;20329;-66
2024/03/01 03:25:46;;;;;;;65.68;22.70;;;;;;;7.53;100.00;99855.63;5096133;28;20047;-65
2024/03/01 03:28:14;;;;;;;58.25;23.45;;;;;;;7.66;100.00;99856.16;5097067;28;20036;-65
2024/03/01 03:30:39;;;;;;;63.30;21.88;;;;;;;7.62;100.00;99854.78;5097139;28;20332;-67
2024/03/01 03:33:05;;;;;;;64.70;24.92;;;;;;;7.66;100.00;99853.53;5097422;28;20043;-65
2024/03/01 03:35:30;;;;;;;63.92;24.70;;;;;;;7.80;100.00;99852.25;5095751;28;20039;-65
2024/03/01 03:37:56;;;;;;;63.05;24.30;;;;;;;7.75;100.00;99852.69;5097774;28;20120;-66
2024/03/01 03:40:21;;;;;;;76.53;25.70;;;;;;;7.86;100.00;99851.69;5096027;28;20036;-65
2024/03/01 03:42:47;;;;;;;69.75;25.83;;;;;;;7.65;100.00;99863.25;5097303;28;20323;-66
2024/03/01 03:45:12;;;;;;;68.50;27.48;;;;;;;7.59;100.00;99858.53;5096309;28;20070;-67
2024/03/01 03:47:38;;;;;;;72.43;27.17;;;;;;;7.55;100.00;99853.69;5096161;28;20164;-66
2024/03/01 03:50:07;;;;;;;73.63;27.08;;;;;;;7.60;100.00;99846.19;5097269;28;20205;-66
2024/03/01 03:52:36;;;;;;;72.50;27.30;;;;;;;7.50;100.00;99851.47;5096717;28;20027;-65
2024/03/01 03:55:06;;;;;;;81.55;30.38;;;;;;;7.80;100.00;99845.19;5096106;28;20036;-67
2024/03/01 03:57:33;;;;;;;79.13;29.98;;;;;;;7.58;100.00;99843.69;5096407;28;20368;-65
2024/03/01 03:59:59;;;;;;;83.25;27.67;;;;;;;7.67;100.00;99840.22;5095828;28;20052;-64
2024/03/01 04:02:26;;;;;;;77.80;29.70;;;;;;;7.61;100.00;99840.78;5096416;28;20329;-66
2024/03/01 04:04:51;;;;;;;73.28;27.85;;;;;;;7.57;100.00;99857.84;5095204;28;20346;-67
2024/03/01 04:07:17;;;;;;;62.72;24.63;;;;;;;7.54;100.00;99860.75;5095768;28;20036;-66
2024/03/01 04:09:42;;;;;;;70.70;25.40;;;;;;;7.61;100.00;99858.41;5096878;28;20039;-67
2024/03/01 04:12:09;;;;;;;58.95;22.52;;;;;;;7.51;100.00;99855.75;5095487;28;20024;-67
2024/03/01 04:14:35;;;;;;;66.40;24.15;;;;;;;7.47;100.00;99845.66;5096585;28;20338;-66
2024/03/01 04:17:00;;;;;;;55.67;18.65;;;;;;;7.37;100.00;99853.56;5094355;28;20028;-65
2024/03/01 04:19:26;;;;;;;50.53;17.80;;;;;;;7.22;100.00;99841.75;5096604;28;20440;-65
2024/03/01 04:21:55;;;;;;;55.55;19.42;;;;;;;7.23;100.00;99848.66;5094754;28;20065;-66
2024/03/01 04:24:20;;;;;;;51.10;19.35;;;;;;;7.24;100.00;99842.44;5097668;28;20222;-67
2024/03/01 04:26:46;;;;;;;46.53;16.15;;;;;;;7.12;100.00;99844.38;5096437;28;20044;-64
2024/03/01 04:29:11;;;;;;;47.85;19.20;;;;;;;7.05;100.00;99828.28;5096532;28;20032;-65
2024/03/01 04:31:38;;;;;;;54.88;20.00;;;;;;;7.13;100.00;99834.66;5094923;28;20050;-65
2024/03/01 04:34:05;;;;;;;58.78;19.30;;;;;;;7.14;100.00;99833.69;5095985;28;20036;-65
2024/03/01 04:36:32;;;;;;;63.33;24.45;;;;;;;7.26;100.00;99829.97;5090121;28;20055;-67
2024/03/01 04:38:58;;;;;;;63.17;23.98;;;;;;;7.30;100.00;99819.03;5096073;28;20047;-67
2024/03/01 04:41:23;;;;;;;59.85;22.25;;;;;;;7.42;100.00;99827.63;5097375;28;20218;-66
2024/03/01 04:43:48;;;;;;;59.10;21.30;;;;;;;7.34;100.00;99832.75;5096452;28;20044;-66
2024/03/01 04:46:14;;;;;;;64.72;24.48;;;;;;;7.27;100.00;99828.97;5098126;28;20217;-66
2024/03/01 04:48:39;;;;;;;52.08;18.92;;;;;;;7.23;100.00;99832.88;5095306;28;20044;-66
2024/03/01 04:51:09;;;;;;;63.25;23.88;;;;;;;7.25;100.00;99823.84;5097398;28;20032;-65
2024/03/01 04:53:35;;;;;;;55.47;19.52;;;;;;;7.27;100.00;99832.44;5095615;28;20083;-67
2024/03/01 04:56:00;;;;;;;50.10;18.83;;;;;;;7.18;100.00;99829.81;5100931;28;20081;-67
2024/03/01 04:58:26;;;;;;;43.58;16.85;;;;;;;7.09;100.00;99834.09;5100658;28;20036;-65
2024/03/01 05:00:51;;;;;;;54.42;21.92;;;;;;;7.19;100.00;99837.59;5100586;28;20233;-66
2024/03/01 05:03:17;;;;;;;41.25;15.77;;;;;;;6.98;100.00;99835.06;5100622;28;20048;-66
2024/03/01 05:05:43;;;;;;;56.75;21.63;;;;;;;7.03;100.00;99832.84;5101476;28;20047;-66
2024/03/01 05:08:09;;;;;;;54.03;23.23;;;;;;;7.20;100.00;99828.72;5100653;28;20067;-65
2024/03/01 05:10:35;;;;;;;69.95;24.38;;;;;;;7.28;100.00;99836.78;5101481;28;20047;-67
2024/03/01 05:13:00;;;;;;;61.47;21.42;;;;;;;7.29;100.00;99834.97;5098820;28;20040;-65
2024/03/01 05:15:26;;;;;;;61.78;22.00;;;;;;;7.29;100.00;99840.25;5100694;28;20024;-65
2024/03/01 05:17:51;;;;;;;63.17;22.85;;;;;;;7.39;100.00;99848.97;5091144;28;20136;-65
2024/03/01 05:20:19;;;;;;;54.28;20.63;;;;;;;7.21;100.00;99850.59;5100428;28;20070;-65
2024/03/01 05:22:44;;;;;;;56.45;21.23;;;;;;;7.26;100.00;99858.94;5097578;28;20268;-66
2024/03/01 05:25:16;;;;;;;51.95;21.23;;;;;;;7.27;100.00;99855.31;5100583;28;20084;-67
2024/03/01 05:27:48;;;;;;;52.50;20.48;;;;;;;7.21;100.00;99866.41;5099781;28;20032;-66
2024/03/01 05:30:18;;;;;;;62.88;25.50;;;;;;;7.25;100.00;99855.47;5100206;28;20203;-64
2024/03/01 05:32:44;;;;;;;56.25;22.40;;;;;;;7.31;100.00;99862.84;5096388;28;20040;-67
2024/03/01 05:35:11;;;;;;;58.45;23.80;;;;;;;7.29;100.00;99838.44;5099501;28;20099;-66
2024/03/01 05:37:37;;;;;;;66.85;24.48;;;;;;;7.30;100.00;99845.38;5099163;28;20055;-65
2024/03/01 05:40:04;;;;;;;52.20;22.45;;;;;;;7.26;100.00;99854.50;5099479;28;20348;-67
2024/03/01 05:42:30;;;;;;;50.05;17.63;;;;;;;7.14;100.00;99863.50;5096174;28;20218;-64
2024/03/01 05:44:56;;;;;;;49.33;19.10;;;;;;;7.26;100.00;99859.75;5099533;28;20040;-66
2024/03/01 05:47:21;;;;;;;51.80;22.15;;;;;;;7.26;100.00;99870.28;5100715;28;20440;-67
2024/03/01 05:49:47;;;;;;;48.88;19.63;;;;;;;7.18;100.00;99888.59;5099442;28;20047;-67
2024/03/01 05:52:12;;;;;;;59.42;20.30;;;;;;;7.22;100.00;99902.31;5101308;28;20203;-66
2024/03/01 05:54:38;;;;;;;51.90;19.67;;;;;;;7.17;100.00;99889.56;5100040;28;20207;-66
2024/03/01 05:57:03;;;;;;;54.65;23.92;;;;;;;7.26;100.00;99865.03;5100998;28;20222;-66
2024/03/01 05:59:29;;;;;;;55.28;20.83;;;;;;;7.45;100.00;99879.19;5099613;28;20052;-67
2024/03/01 06:01:54;;;;;;;56.35;19.52;;;;;;;7.51;100.00;99874.22;5100031;28;20039;-67
2024/03/01 06:04:20;;;;;;;67.38;23.42;;;;;;;7.34;100.00;99881.00;5098910;28;20043;-65
2024/03/01 06:06:46;;;;;;;61.65;21.48;;;;;;;7.37;100.00;99882.53;5098401;28;20099;-65
2024/03/01 06:09:11;;;;;;;63.17;22.65;;;;;;;7.49;100.00;99880.59;5098829;28;20115;-65
2024/03/01 06:11:37;;;;;;;59.03;20.75;;;;;;;7.43;100.00;99881.97;5098558;28;20439;-65
2024/03/01 06:14:03;;;;;;;60.03;22.67;;;;;;;7.32;100.00;99890.84;5098631;28;20063;-66
2024/03/01 06:16:29;;;;;;;63.17;22.73;;;;;;;7.22;100.00;99889.97;5098471;28;20131;-65
2024/03/01 06:18:55;;;;;;;63.78;24.02;;;;;;;7.41;100.00;99878.66;5099227;28;20036;-66
2024/03/01 06:21:22;;;;;;;52.75;21.98;;;;;;;7.33;100.00;99878.50;5097864;28;20036;-66
2024/03/01 06:23:47;;;;;;;53.63;19.40;;;;;;;7.29;100.00;99909.56;5099256;28;20059;-65
2024/03/01 06:26:14;;;;;;;60.90;20.48;;;;;;;7.28;100.00;99901.75;5097987;28;20048;-65
2024/03/01 06:28:41;;;;;;;66.10;25.02;;;;;;;7.32;100.00;99890.00;5099112;28;20050;-65
2024/03/01 06:31:07;;;;;;;55.03;23.30;;;;;;;7.42;100.00;99887.38;5097850;28;20047;-65
2024/03/01 06:33:33;;;;;;;61.97;23.48;;;;;;;7.41;100.00;99881.28;5099169;28;20043;-66
2024/03/01 06:35:59;;;;;;;62.83;23.73;;;;;;;7.47;100.00;99887.81;5097934;28;20146;-66
2024/03/01 06:38:24;;;;;;;80.75;31.77;;;;;;;7.64;100.00;99895.00;5098660;28;20040;-65
2024/03/01 06:40:50;;;;;;;72.95;26.90;;;;;;;7.53;100.00;99888.06;5090068;28;20036;-65
2024/03/01 06:43:15;;;;;;;70.03;25.10;;;;;;;7.53;100.00;99887.25;5098180;28;20089;-65
2024/03/01 06:45:41;;;;;;;75.95;26.70;;;;;;;7.50;100.00;99898.91;5098293;28;20043;-65
2024/03/01 06:48:06;;;;;;;73.00;28.80;;;;;;;7.53;100.00;99890.72;5098752;28;20039;-65
2024/03/01 06:50:32;;;;;;;70.00;25.70;;;;;;;7.51;100.00;99887.38;5098615;28;20109;-67
2024/03/01 06:52:57;;;;;;;66.97;26.98;;;;;;;7.51;100.00;99897.94;5097473;28;20355;-65
2024/03/01 06:55:23;;;;;;;65.85;24.23;;;;;;;7.57;100.00;99909.72;5097272;28;20048;-64
2024/03/01 06:57:51;;;;;;;74.95;25.38;;;;;;;7.71;100.00;99911.09;5096977;28;20040;-67
2024/03/01 07:00:16;;;;;;;64.55;24.48;;;;;;;7.83;100.00;99913.44;5098122;28;20035;-65
2024/03/01 07:02:42;;;;;;;63.38;25.10;;;;;;;7.90;100.00;99903.16;5098093;28;20028;-65
2024/03/01 07:05:08;;;;;;;59.13;23.48;;;;;;;7.98;100.00;99906.75;5098314;28;20134;-65
2024/03/01 07:07:34;;;;;;;49.22;21.38;;;;;;;7.88;100.00;99920.94;5095708;28;20040;-66
2024/03/01 07:10:00;;;;;;;63.08;23.50;;;;;;;7.78;100.00;99918.31;5097307;28;20780;-67
2024/03/01 07:12:25;;;;;;;60.10;24.00;;;;;;;8.00;100.00;99899.53;5095961;28;20027;-64
2024/03/01 07:14:51;;;;;;;64.57;24.63;;;;;;;7.90;100.00;99887.34;5096832;28;20039;-66
2024/03/01 07:17:16;;;;;;;57.80;22.20;;;;;;;7.84;100.00;99899.28;5096140;28;20032;-66
2024/03/01 07:19:42;;;;;;;59.55;23.60;;;;;;;7.93;100.00;99880.00;5096598;28;20093;-67
2024/03/01 07:22:07;;;;;;;59.20;23.55;;;;;;;7.93;100.00;99884.44;5097186;28;20051;-66
2024/03/01 07:24:33;;;;;;;59.85;22.20;;;;;;;7.96;100.00;99890.25;5096839;28;20403;-66
2024/03/01 07:26:59;;;;;;;60.30;22.27;;;;;;;7.94;100.00;99886.09;5097030;28;20043;-67
2024/03/01 07:29:24;;;;;;;51.58;21.65;;;;;;;7.87;100.00;99892.91;5097333;28;20031;-66
2024/03/01 07:31:50;;;;;;;53.47;20.80;;;;;;;7.91;100.00;99878.47;5097877;28;20032;-66
2024/03/01 07:34:15;;;;;;;54.53;22.25;;;;;;;8.00;100.00;99898.72;5096838;28;20232;-66
2024/03/01 07:36:41;;;;;;;47.00;19.05;;;;;;;7.93;100.00;99900.25;5097391;28;20053;-67
2024/03/01 07:39:08;;;;;;;47.63;19.75;;;;;;;7.80;100.00;99895.28;5095837;28;20062;-66
2024/03/01 07:41:33;;;;;;;51.80;20.00;;;;;;;7.74;100.00;99887.94;5096817;28;20072;-66
2024/03/01 07:43:58;;;;;;;46.63;17.73;;;;;;;7.59;100.00;99886.69;5095230;28;20040;-65
2024/03/01 07:46:24;;;;;;;47.70;19.48;;;;;;;7.64;100.00;99869.47;5097468;28;20040;-66
2024/03/01 07:48:50;;;;;;;46.63;20.15;;;;;;;7.71;100.00;99875.03;5096206;28;20376;-67
2024/03/01 07:51:15;;;;;;;49.03;20.70;;;;;;;7.85;100.00;99877.22;5097229;28;20051;-65
2024/03/01 07:53:41;;;;;;;49.08;19.73;;;;;;;7.86;100.00;99878.88;5096230;28;20031;-66
2024/03/01 07:56:07;;;;;;;49.60;20.52;;;;;;;7.85;100.00;99866.69;5096310;28;20036;-66
2024/03/01 07:58:33;;;;;;;46.47;17.48;;;;;;;7.85;100.00;99879.03;5096364;28;20032;-67
2024/03/01 08:00:59;;;;;;;43.40;19.60;;;;;;;7.95;100.00;99870.13;5096438;28;20034;-65
2024/03/01 08:03:25;;;;;;;54.60;20.20;;;;;;;8.06;100.00;99870.94;5094737;28;20055;-67
2024/03/01 08:05:51;;;;;;;45.17;16.98;;;;;;;7.90;100.00;99875.00;5096314;28;20074;-67
2024/03/01 08:08:33;;;;;;;37.40;15.68;;;;;;;7.79;100.00;99882.22;5096905;28;20055;-67
2024/03/01 08:10:58;;;;;;;42.13;17.35;;;;;;;7.87;100.00;99880.56;5096489;28;20028;-66
2024/03/01 08:13:24;;;;;;;45.30;19.50;;;;;;;8.11;100.00;99868.69;5096868;28;20231;-66
2024/03/01 08:15:49;;;;;;;51.92;21.67;;;;;;;8.24;100.00;99872.69;5096114;28;20043;-66
2024/03/01 08:18:22;;;;;;;51.08;19.40;;;;;;;8.33;100.00;99884.25;5097284;28;20062;-67
2024/03/01 08:21:06;;;;;;;55.72;20.92;;;;;;;8.31;100.00;99896.69;5096019;28;20038;-65
2024/03/01 08:23:39;;;;;;;52.33;19.90;;;;;;;8.35;100.00;99902.56;5097460;28;20068;-66
2024/03/01 08:26:19;;;;;;;53.97;20.87;;;;;;;8.19;100.00;99876.72;5095174;28;20074;-67
2024/03/01 08:28:44;;;;;;;51.33;21.65;;;;;;;8.37;100.00;99876.88;5098080;28;20261;-67
2024/03/01 08:31:28;;;;;;;53.85;22.10;;;;;;;8.23;100.00;99873.66;5098831;28;20054;-65
2024/03/01 08:34:06;;;;;;;53.72;23.33;;;;;;;8.38;100.00;99875.91;5102057;28;20036;-66
2024/03/01 08:36:32;;;;;;;49.00;20.73;;;;;;;8.32;100.00;99854.34;5099342;28;20285;-64
2024/03/01 08:39:05;;;;;;;53.15;22.60;;;;;;;8.18;100.00;99867.16;5101402;28;20043;-67
2024/03/01 08:41:31;;;;;;;53.33;24.30;;;;;;;8.25;100.00;99871.72;5098284;28;20195;-65
2024/03/01 08:43:57;;;;;;;55.83;22.92;;;;;;;8.24;100.00;99862.13;5100112;28;20031;-65
2024/03/01 08:46:35;;;;;;;62.95;24.17;;;;;;;8.32;100.00;99869.31;5098117;28;20276;-65
2024/03/01 08:49:32;;;;;;;59.45;23.35;;;;;;;8.28;100.00;99876.69;5099775;28;20102;-65
2024/03/01 08:51:58;;;;;;;45.05;19.13;;;;;;;8.04;100.00;99893.97;5077649;28;20044;-67
2024/03/01 08:54:26;;;;;;;54.72;22.67;;;;;;;8.19;100.00;99895.19;5100235;28;20040;-66
2024/03/01 08:57:26;;;;;;;62.08;25.92;;;;;;;8.53;100.00;99900.84;5099239;28;20062;-67
2024/03/01 08:59:52;;;;;;;61.42;24.65;;;;;;;8.68;100.00;99893.28;5100894;28;20387;-67
2024/03/01 09:02:26;;;;;;;57.55;24.30;;;;;;;8.67;100.00;99873.97;5099803;28;20120;-67
2024/03/01 09:04:52;;;;;;;50.63;22.38;;;;;;;8.48;100.00;99863.50;5100427;28;20051;-67
2024/03/01 09:07:28;;;;;;;47.92;19.40;;;;;;;8.44;100.00;99862.94;5099520;28;20032;-66
2024/03/01 09:09:55;;;;;;;59.30;22.35;;;;;;;8.38;100.00;99862.69;5100400;28;20214;-67
2024/03/01 09:12:25;;;;;;;56.10;22.85;;;;;;;8.36;100.00;99869.94;5099399;28;20035;-67
2024/03/01 09:14:59;;;;;;;55.40;23.45;;;;;;;8.36;100.00;99880.47;5099657;28;20032;-65
2024/03/01 09:17:25;;;;;;;;;;;;;;;8.46;100.00;99873.38;5099834;28;20389;-65
2024/03/01 09:19:50;;;;;;;56.65;21.70;;;;;;;8.54;100.00;99870.81;5098501;28;19930;-67
2024/03/01 09:22:16;;;;;;;55.13;26.15;;;;;;;8.58;100.00;99869.56;5100043;28;20032;-67
2024/03/01 09:24:43;;;;;;;54.85;26.08;;;;;;;8.78;100.00;99870.28;5099716;28;20066;-66
2024/03/01 09:27:20;;;;;;;56.95;24.15;;;;;;;8.77;100.00;99869.47;5098401;28;20063;-65
2024/03/01 09:29:46;;;;;;;57.58;24.90;;;;;;;8.59;100.00;99876.50;5099054;28;20059;-67
2024/03/01 09:32:14;;;;;;;52.83;22.63;;;;;;;8.62;100.00;99889.41;5099481;28;20035;-66
2024/03/01 09:34:41;;;;;;;55.78;23.85;;;;;;;8.58;100.00;99882.75;5099801;28;20070;-66
2024/03/01 09:37:14;;;;;;;43.83;18.27;;;;;;;8.27;100.00;99876.84;5100199;28;20322;-66
2024/03/01 09:39:40;;;;;;;52.47;23.40;;;;;;;8.26;100.00;99876.00;5099694;28;20028;-67
2024/03/01 09:42:32;;;;;;;60.95;23.05;;;;;;;8.31;100.00;99870.31;5098393;28;20040;-65
2024/03/01 09:45:12;;;;;;;59.75;24.20;;;;;;;8.22;100.00;99864.09;5099079;28;20039;-67
2024/03/01 09:47:47;;;;;;;51.08;21.77;;;;;;;8.34;100.00;99867.44;5099590;28;20040;-65
2024/03/01 09:50:33;;;;;;;63.10;26.10;;;;;;;8.42;100.00;99867.53;5098666;28;20047;-65
2024/03/01 09:53:25;;;;;;;65.35;25.63;;;;;;;8.56;100.00;99858.31;5099107;28;20032;-66
2024/03/01 09:56:08;;;;;;;65.88;26.38;;;;;;;8.51;100.00;99868.47;5070509;28;20254;-66
2024/03/01 09:58:54;;;;;;;64.65;27.17;;;;;;;8.41;100.00;99879.06;5098201;28;20334;-66
2024/03/01 10:01:29;;;;;;;65.40;27.00;;;;;;;8.45;100.00;99863.78;5098411;28;20043;-65
2024/03/01 10:04:30;;;;;;;60.15;23.95;;;;;;;8.47;100.00;99865.31;5099287;28;20063;-65
2024/03/01 10:07:19;;;;;;;62.97;26.33;;;;;;;8.52;100.00;99862.22;5095928;28;20106;-65
2024/03/01 10:09:54;;;;;;;63.53;25.90;;;;;;;8.62;100.00;99841.91;5097583;28;20028;-66
2024/03/01 10:12:38;;;;;;;66.57;27.27;;;;;;;8.60;100.00;99843.84;5098448;28;20229;-65
2024/03/01 10:15:18;;;;;;;57.08;25.85;;;;;;;8.52;100.00;99849.84;5097923;28;20040;-64
2024/03/01 10:18:21;;;;;;;58.40;24.92;;;;;;;8.60;100.00;99862.31;5098243;28;20036;-66
2024/03/01 10:21:21;;;;;;;59.47;24.38;;;;;;;8.70;100.00;99872.84;5065388;28;20067;-66
2024/03/01 10:24:08;;;;;;;59.58;25.98;;;;;;;8.82;100.00;99864.56;5097797;28;20035;-67
2024/03/01 10:26:40;;;;;;;49.97;22.95;;;;;;;8.77;100.00;99858.06;5098014;28;20048;-66
2024/03/01 10:29:20;;;;;;;52.35;23.60;;;;;;;8.82;100.00;99840.81;5097722;28;20032;-66
2024/03/01 10:32:10;;;;;;;54.22;23.52;;;;;;;8.88;100.00;99847.31;5096505;28;20277;-66
2024/03/01 10:35:01;;;;;;;48.78;21.88;;;;;;;8.83;100.00;99833.72;5098713;28;20299;-66
2024/03/01 10:37:51;;;;;;;53.60;25.02;;;;;;;9.06;100.00;99840.22;5097179;28;20096;-66
2024/03/01 10:40:19;;;;;;;56.25;23.20;;;;;;;9.01;100.00;99842.50;5097187;28;20024;-65
2024/03/01 10:42:53;;;;;;;47.10;22.48;;;;;;;9.15;100.00;99844.59;5097420;28;20043;-66
2024/03/01 10:45:28;;;;;;;50.15;22.35;;;;;;;9.39;100.00;99830.81;5098375;28;20035;-66
2024/03/01 10:47:55;;;;;;;45.40;22.50;;;;;;;9.46;100.00;99817.81;5097949;28;20038;-66
2024/03/01 10:50:22;;;;;;;45.88;21.75;;;;;;;9.46;100.00;99809.91;5097985;28;20040;-65
2024/03/01 10:53:12;;;;;;;51.55;21.85;;;;;;;9.48;100.00;99800.00;5097054;28;20024;-66
2024/03/01 10:55:41;;;;;;;54.60;23.20;;;;;;;9.49;100.00;99804.31;5096935;28;20361;-66
2024/03/01 10:58:15;;;;;;;51.35;22.70;;;;;;;9.28;100.00;99805.44;5097350;28;20051;-66
2024/03/01 11:00:47;;;;;;;52.10;22.33;;;;;;;9.39;100.00;99808.84;5096960;28;20052;-65
2024/03/01 11:03:22;;;;;;;46.80;21.95;;;;;;;9.26;100.00;99814.50;5098171;28;20039;-66
2024/03/01 11:05:54;;;;;;;48.17;21.20;;;;;;;9.34;100.00;99809.28;5097764;28;20314;-64
2024/03/01 11:09:10;;;;;;;54.53;23.10;;;;;;;9.46;100.00;99805.44;5097615;28;20106;-66
2024/03/01 11:11:45;;;;;;;46.83;20.33;;;;;;;9.46;100.00;99804.59;5062782;28;20060;-66
2024/03/01 11:14:13;;;;;;;49.25;23.20;;;;;;;9.50;100.00;99800.69;5098164;28;20058;-66
2024/03/01 11:16:43;;;;;;;50.92;20.50;;;;;;;9.29;100.00;99795.69;5097530;28;20031;-65
2024/03/01 11:19:15;;;;;;;49.38;24.65;;;;;;;9.41;100.00;99789.22;5097284;28;20040;-66
2024/03/01 11:21:57;;;;;;;61.17;24.02;;;;;;;9.48;100.00;99784.97;5096436;28;20256;-64
2024/03/01 11:24:26;;;;;;;50.50;21.75;;;;;;;9.54;100.00;99797.56;5098250;28;20044;-65